Aldan, Russia
Current Conditions -  °F | °C
As of 5:00 PM on Thursday 29 Jan 2015 (Local Time) from UEEE Reporting Station
Haze Haze  
Wind Chill: -35°   Ceiling: Unl
Heat Index: -35°   Visibility: 3mi
Dew Point: -42°   Wind: 2mph
Humidity: 68%   Direction: 320°NW
Pressure: 30.06"   Gusts: NA
Location:  58.61°N, 125.39°E
Report Text: UEEE 290800Z 32001MPS 5000 BR SCT200 M37/M41 Q1018 NOSIG RMKQFE754 23490150
Loading
Personal Weather Stations






























Interactive Weather Map New forecast layout! Learn more

10-Day Weather Forecast

Advertisements
Track Severe Weather on mobile